createdAt,value
2018-12-27T00:00:05.863Z,102297.86
2018-12-27T00:02:34.449Z,102304.00
2018-12-27T00:05:03.091Z,102304.00
2018-12-27T00:07:31.708Z,102298.77
2018-12-27T00:10:00.412Z,102294.21
2018-12-27T00:12:29.240Z,102286.84
2018-12-27T00:14:58.331Z,102290.89
2018-12-27T00:17:26.918Z,102290.89
2018-12-27T00:19:55.598Z,102299.61
2018-12-27T00:22:24.165Z,102293.95
2018-12-27T00:24:52.653Z,102293.80
2018-12-27T00:27:21.343Z,102293.44
2018-12-27T00:29:50.085Z,102297.45
2018-12-27T00:32:18.629Z,102296.33
2018-12-27T00:34:47.313Z,102288.92
2018-12-27T00:37:16.050Z,102290.67
2018-12-27T00:39:44.813Z,102285.67
2018-12-27T00:42:13.422Z,102284.72
2018-12-27T00:44:42.046Z,102278.52
2018-12-27T00:47:10.779Z,102285.98
2018-12-27T00:49:39.456Z,102277.89
2018-12-27T00:52:10.446Z,102271.09
2018-12-27T00:54:39.157Z,102267.11
2018-12-27T00:57:08.296Z,102262.88
2018-12-27T00:59:36.956Z,102261.78
2018-12-27T01:02:07.387Z,102261.78
2018-12-27T01:04:36.025Z,102258.94
2018-12-27T01:07:06.345Z,102257.19
2018-12-27T01:09:39.319Z,102267.64
2018-12-27T01:12:08.401Z,102267.45
2018-12-27T01:14:37.279Z,102269.89
2018-12-27T01:17:05.908Z,102263.55
2018-12-27T01:19:35.933Z,102259.72
2018-12-27T01:22:04.677Z,102261.28
2018-12-27T01:24:33.244Z,102267.63
2018-12-27T01:27:03.012Z,102268.14
2018-12-27T01:29:33.720Z,102270.08
2018-12-27T01:32:05.795Z,102263.63
2018-12-27T01:34:50.008Z,102261.72
2018-12-27T01:37:29.499Z,102257.05
2018-12-27T01:40:00.087Z,102260.08
2018-12-27T01:42:29.414Z,102259.80
2018-12-27T01:45:01.720Z,102253.34
2018-12-27T01:47:54.616Z,102247.20
2018-12-27T01:50:23.590Z,102244.34
2018-12-27T01:52:52.301Z,102245.55
2018-12-27T01:55:21.067Z,102242.77
2018-12-27T01:57:51.565Z,102246.38
2018-12-27T02:00:20.259Z,102238.44
2018-12-27T02:02:49.146Z,102240.40
2018-12-27T02:05:18.018Z,102238.74
2018-12-27T02:07:46.931Z,102236.47
2018-12-27T02:10:16.700Z,102232.03
2018-12-27T02:12:45.840Z,102229.17
2018-12-27T02:15:14.591Z,102232.01
2018-12-27T02:17:43.328Z,102225.84
2018-12-27T02:20:11.922Z,102217.66
2018-12-27T02:22:40.568Z,102211.92
2018-12-27T02:25:09.193Z,102199.83
2018-12-27T02:27:40.569Z,102194.33
2018-12-27T02:30:09.219Z,102189.63
2018-12-27T02:32:37.866Z,102185.66
2018-12-27T02:35:06.463Z,102187.85
2018-12-27T02:37:35.185Z,102188.41
2018-12-27T02:40:03.892Z,102193.92
2018-12-27T02:42:32.843Z,102197.11
2018-12-27T02:45:01.654Z,102195.55
2018-12-27T02:47:30.376Z,102195.19
2018-12-27T02:49:59.067Z,102195.55
2018-12-27T02:52:27.731Z,102194.03
2018-12-27T02:54:56.702Z,102199.57
2018-12-27T02:57:27.036Z,102192.24
2018-12-27T02:59:58.781Z,102193.48
2018-12-27T03:02:30.246Z,102182.84
2018-12-27T03:04:59.560Z,102181.45
2018-12-27T03:07:28.163Z,102185.51
2018-12-27T03:09:57.004Z,102186.71
2018-12-27T03:12:25.788Z,102182.02
2018-12-27T03:14:54.374Z,102176.47
2018-12-27T03:17:23.234Z,102164.48
2018-12-27T03:19:54.861Z,102169.98
2018-12-27T03:22:23.477Z,102163.37
2018-12-27T03:24:52.049Z,102166.72
2018-12-27T03:27:20.685Z,102167.99
2018-12-27T03:29:49.295Z,102165.16
2018-12-27T03:32:17.896Z,102163.33
2018-12-27T03:34:46.478Z,102163.22
2018-12-27T03:37:15.077Z,102168.91
2018-12-27T03:39:43.830Z,102167.36
2018-12-27T03:42:12.430Z,102160.86
2018-12-27T03:44:41.069Z,102170.19
2018-12-27T03:47:09.874Z,102177.67
2018-12-27T03:49:38.507Z,102170.98
2018-12-27T03:52:07.251Z,102171.58
2018-12-27T03:54:36.011Z,102169.11
2018-12-27T03:57:04.674Z,102169.59
2018-12-27T03:59:33.475Z,102173.93
2018-12-27T04:02:02.162Z,102170.42
2018-12-27T04:04:31.337Z,102167.67
2018-12-27T04:06:59.842Z,102159.23
2018-12-27T04:09:28.459Z,102154.02
2018-12-27T04:11:57.041Z,102155.72
2018-12-27T04:14:27.440Z,102145.75
2018-12-27T04:16:56.071Z,102139.48
2018-12-27T04:19:24.563Z,102139.27
2018-12-27T04:21:53.178Z,102139.19
2018-12-27T04:24:22.512Z,102142.69
2018-12-27T04:26:51.065Z,102139.86
2018-12-27T04:29:19.538Z,102136.66
2018-12-27T04:31:49.695Z,102145.73
2018-12-27T04:34:24.397Z,102140.64
2018-12-27T04:36:53.760Z,102137.57
2018-12-27T04:39:22.333Z,102135.66
2018-12-27T04:42:08.727Z,102130.55
2018-12-27T04:44:37.541Z,102132.59
2018-12-27T04:47:06.126Z,102126.11
2018-12-27T04:49:34.640Z,102130.92
2018-12-27T04:52:03.088Z,102125.94
2018-12-27T04:54:31.747Z,102130.24
2018-12-27T04:57:00.229Z,102125.90
2018-12-27T04:59:28.734Z,102119.84
2018-12-27T05:01:57.210Z,102123.20
2018-12-27T05:04:25.798Z,102122.45
2018-12-27T05:06:54.443Z,102125.01
2018-12-27T05:09:23.183Z,102121.41
2018-12-27T05:11:51.683Z,102117.41
2018-12-27T05:14:20.372Z,102115.81
2018-12-27T05:16:48.954Z,102116.72
2018-12-27T05:19:17.507Z,102121.06
2018-12-27T05:21:45.970Z,102116.14
2018-12-27T05:24:14.465Z,102107.57
2018-12-27T05:26:42.928Z,102106.92
2018-12-27T05:29:11.403Z,102106.70
2018-12-27T05:31:39.973Z,102104.88
2018-12-27T05:34:08.471Z,102107.58
2018-12-27T05:36:36.955Z,102116.80
2018-12-27T05:39:06.640Z,102106.02
2018-12-27T05:41:35.299Z,102116.22
2018-12-27T05:44:03.853Z,102124.16
2018-12-27T05:46:32.314Z,102116.11
2018-12-27T05:49:00.897Z,102127.79
2018-12-27T05:51:29.396Z,102126.16
2018-12-27T05:53:58.035Z,102124.72
2018-12-27T05:56:26.664Z,102124.04
2018-12-27T05:58:55.410Z,102116.41
2018-12-27T06:01:24.034Z,102117.66
2018-12-27T06:03:55.342Z,102116.61
2018-12-27T06:06:23.900Z,102110.86
2018-12-27T06:08:52.413Z,102110.64
2018-12-27T06:11:21.093Z,102117.94
2018-12-27T06:13:49.700Z,102115.86
2018-12-27T06:16:18.285Z,102120.73
2018-12-27T06:18:46.825Z,102123.73
2018-12-27T06:21:15.349Z,102117.42
2018-12-27T06:23:43.908Z,102120.96
2018-12-27T06:26:12.390Z,102115.05
2018-12-27T06:28:40.974Z,102118.99
2018-12-27T06:31:11.656Z,102121.47
2018-12-27T06:33:40.237Z,102122.20
2018-12-27T06:36:08.946Z,102127.44
2018-12-27T06:38:37.609Z,102122.23
2018-12-27T06:41:06.247Z,102130.66
2018-12-27T06:43:34.797Z,102121.55
2018-12-27T06:46:03.530Z,102127.70
2018-12-27T06:48:32.251Z,102123.11
2018-12-27T06:51:00.813Z,102120.38
2018-12-27T06:53:29.339Z,102131.09
2018-12-27T06:55:57.806Z,102122.45
2018-12-27T06:58:26.350Z,102126.65
2018-12-27T07:00:55.488Z,102131.75
2018-12-27T07:03:24.031Z,102133.50
2018-12-27T07:05:52.466Z,102136.16
2018-12-27T07:08:21.034Z,102130.37
2018-12-27T07:10:49.540Z,102130.37
2018-12-27T07:13:17.994Z,102133.14
2018-12-27T07:15:46.571Z,102144.33
2018-12-27T07:18:15.056Z,102147.98
2018-12-27T07:20:43.516Z,102144.63
2018-12-27T07:23:12.037Z,102149.41
2018-12-27T07:25:40.647Z,102142.73
2018-12-27T07:28:09.132Z,102132.38
2018-12-27T07:30:37.709Z,102132.38
2018-12-27T07:33:06.293Z,102151.08
2018-12-27T07:35:35.112Z,102134.89
2018-12-27T07:38:03.785Z,102143.57
2018-12-27T07:40:32.483Z,102150.72
2018-12-27T07:43:19.031Z,102144.00
2018-12-27T07:45:47.947Z,102133.72
2018-12-27T07:48:16.402Z,102143.71
2018-12-27T07:50:57.120Z,102139.70
2018-12-27T07:53:25.602Z,102140.22
2018-12-27T07:55:56.827Z,102145.69
2018-12-27T07:58:28.442Z,102137.66
2018-12-27T08:00:57.137Z,102135.18
2018-12-27T08:03:25.663Z,102140.17
2018-12-27T08:05:54.168Z,102144.98
2018-12-27T08:08:22.964Z,102139.11
2018-12-27T08:10:51.436Z,102139.11
2018-12-27T08:13:19.978Z,102134.48
2018-12-27T08:15:48.398Z,102137.63
2018-12-27T08:18:16.985Z,102133.31
2018-12-27T08:20:45.470Z,102129.52
2018-12-27T08:23:13.973Z,102132.47
2018-12-27T08:25:42.470Z,102131.03
2018-12-27T08:28:10.915Z,102124.59
2018-12-27T08:30:39.412Z,102119.84
2018-12-27T08:33:07.997Z,102125.44
2018-12-27T08:35:37.498Z,102124.06
2018-12-27T08:38:05.978Z,102121.81
2018-12-27T08:40:34.517Z,102122.38
2018-12-27T08:43:04.555Z,102118.25
2018-12-27T08:45:33.072Z,102114.89
2018-12-27T08:48:01.773Z,102118.75
2018-12-27T08:50:30.232Z,102125.91
2018-12-27T08:52:58.718Z,102125.09
2018-12-27T08:55:27.478Z,102120.25
2018-12-27T08:57:56.016Z,102127.41
2018-12-27T09:00:26.292Z,102126.01
2018-12-27T09:02:54.896Z,102122.69
2018-12-27T09:05:23.466Z,102122.11
2018-12-27T09:07:52.109Z,102124.96
2018-12-27T09:10:20.596Z,102111.52
2018-12-27T09:12:49.057Z,102114.27
2018-12-27T09:15:18.203Z,102111.62
2018-12-27T09:17:46.988Z,102103.75
2018-12-27T09:20:15.774Z,102113.73
2018-12-27T09:22:44.301Z,102118.28
2018-12-27T09:25:12.840Z,102109.34
2018-12-27T09:27:41.324Z,102109.74
2018-12-27T09:30:09.845Z,102111.09
2018-12-27T09:32:38.323Z,102111.26
2018-12-27T09:35:06.913Z,102110.95
2018-12-27T09:37:36.501Z,102117.30
2018-12-27T09:40:06.215Z,102116.98
2018-12-27T09:42:38.352Z,102111.22
2018-12-27T09:45:08.346Z,102111.22
2018-12-27T09:47:36.762Z,102110.70
2018-12-27T09:50:06.061Z,102109.47
2018-12-27T09:52:34.539Z,102093.33
2018-12-27T09:55:03.122Z,102093.33
2018-12-27T09:57:31.571Z,102102.14
2018-12-27T10:00:00.240Z,102102.14
2018-12-27T10:02:28.970Z,102096.83
2018-12-27T10:04:57.555Z,102096.83
2018-12-27T10:07:26.339Z,102097.80
2018-12-27T10:09:55.023Z,102087.34
2018-12-27T10:12:23.864Z,102079.65
2018-12-27T10:14:52.346Z,102079.65
2018-12-27T10:17:22.386Z,102081.72
2018-12-27T10:19:50.996Z,102077.14
2018-12-27T10:22:19.669Z,102084.03
2018-12-27T10:24:48.211Z,102080.39
2018-12-27T10:27:16.897Z,102080.55
2018-12-27T10:29:45.418Z,102072.47
2018-12-27T10:32:13.847Z,102073.91
2018-12-27T10:34:42.309Z,102080.70
2018-12-27T10:37:10.785Z,102080.62
2018-12-27T10:39:39.330Z,102080.62
2018-12-27T10:42:08.154Z,102078.94
2018-12-27T10:44:36.777Z,102077.43
2018-12-27T10:47:05.546Z,102078.94
2018-12-27T10:49:35.678Z,102068.28
2018-12-27T10:52:04.189Z,102063.63
2018-12-27T10:54:32.670Z,102065.38
2018-12-27T10:57:01.646Z,102056.69
2018-12-27T10:59:30.110Z,102054.27
2018-12-27T11:02:06.070Z,102056.10
2018-12-27T11:04:34.507Z,102046.34
2018-12-27T11:07:05.764Z,102045.25
2018-12-27T11:09:36.084Z,102040.11
2018-12-27T11:12:04.545Z,102032.59
2018-12-27T11:14:33.302Z,102034.40
2018-12-27T11:17:02.198Z,102026.01
2018-12-27T11:19:33.977Z,102013.69
2018-12-27T11:22:02.555Z,102013.69
2018-12-27T11:24:31.038Z,102015.03
2018-12-27T11:26:59.763Z,102008.03
2018-12-27T11:29:28.434Z,101994.59
2018-12-27T11:31:56.925Z,101994.19
2018-12-27T11:34:25.450Z,101994.19
2018-12-27T11:36:53.995Z,101995.62
2018-12-27T11:39:22.488Z,101996.37
2018-12-27T11:41:51.079Z,101992.77
2018-12-27T11:44:19.646Z,101996.34
2018-12-27T11:46:48.748Z,101991.58
2018-12-27T11:49:17.197Z,101991.38
2018-12-27T11:51:45.640Z,101979.95
2018-12-27T11:54:14.323Z,101983.62
2018-12-27T11:56:42.942Z,101972.98
2018-12-27T11:59:11.489Z,101972.98
2018-12-27T12:01:40.580Z,101963.14
2018-12-27T12:04:09.343Z,101976.97
2018-12-27T12:06:37.820Z,101982.55
2018-12-27T12:09:06.987Z,101987.70
2018-12-27T12:11:35.473Z,101990.76
2018-12-27T12:14:04.259Z,101991.81
2018-12-27T12:16:32.796Z,101990.21
2018-12-27T12:19:01.482Z,101988.09
2018-12-27T12:21:30.065Z,101988.09
2018-12-27T12:23:59.032Z,101965.27
2018-12-27T12:26:27.672Z,101965.27
2018-12-27T12:28:56.200Z,101981.09
2018-12-27T12:31:24.683Z,101987.45
2018-12-27T12:33:53.188Z,101995.30
2018-12-27T12:36:21.670Z,101996.66
2018-12-27T12:38:50.227Z,101987.56
2018-12-27T12:41:18.758Z,101998.09
2018-12-27T12:43:47.608Z,101998.59
2018-12-27T12:46:16.056Z,101990.65
2018-12-27T12:48:44.719Z,102000.23
2018-12-27T12:51:13.240Z,101997.48
2018-12-27T12:53:41.919Z,101997.36
2018-12-27T12:56:10.539Z,102007.28
2018-12-27T12:58:39.231Z,102009.28
2018-12-27T13:01:09.151Z,102010.88
2018-12-27T13:03:37.701Z,102014.24
2018-12-27T13:06:07.236Z,102022.80
2018-12-27T13:08:35.768Z,102023.40
2018-12-27T13:11:04.405Z,102030.94
2018-12-27T13:13:33.385Z,102020.08
2018-12-27T13:16:02.291Z,102020.08
2018-12-27T13:18:30.959Z,102017.52
2018-12-27T13:20:59.788Z,102021.67
2018-12-27T13:23:28.346Z,102018.16
2018-12-27T13:25:56.806Z,102012.08
2018-12-27T13:28:25.331Z,102012.08
2018-12-27T13:30:53.783Z,102021.30
2018-12-27T13:33:22.317Z,102024.30
2018-12-27T13:35:50.844Z,102021.20
2018-12-27T13:38:19.333Z,102015.66
2018-12-27T13:40:47.923Z,102018.00
2018-12-27T13:43:16.469Z,102019.50
2018-12-27T13:45:44.952Z,102012.86
2018-12-27T13:48:13.511Z,102012.30
2018-12-27T13:50:42.418Z,102012.30
2018-12-27T13:53:11.895Z,102013.05
2018-12-27T13:55:40.577Z,102014.45
2018-12-27T13:58:09.075Z,102018.00
2018-12-27T14:00:37.624Z,102002.75
2018-12-27T14:03:06.433Z,101996.49
2018-12-27T14:05:35.911Z,101996.49
2018-12-27T14:08:04.521Z,102007.28
2018-12-27T14:10:32.958Z,102009.58
2018-12-27T14:13:01.627Z,102012.64
2018-12-27T14:15:30.248Z,102000.66
2018-12-27T14:17:58.911Z,102009.67
2018-12-27T14:20:27.590Z,102008.80
2018-12-27T14:22:56.003Z,102011.83
2018-12-27T14:25:24.420Z,102009.67
2018-12-27T14:27:52.924Z,102006.50
2018-12-27T14:30:21.408Z,102006.31
2018-12-27T14:32:49.908Z,102011.65
2018-12-27T14:35:18.332Z,102010.38
2018-12-27T14:37:46.852Z,102003.11
2018-12-27T14:40:15.432Z,102007.06
2018-12-27T14:42:47.117Z,102009.37
2018-12-27T14:45:15.778Z,102012.02
2018-12-27T14:47:44.213Z,102005.48
2018-12-27T14:50:12.664Z,102003.63
2018-12-27T14:52:41.143Z,102002.92
2018-12-27T14:55:09.727Z,101994.38
2018-12-27T14:57:38.214Z,101994.38
2018-12-27T15:00:09.920Z,102005.75
2018-12-27T15:02:39.957Z,101994.75
2018-12-27T15:05:08.461Z,101992.25
2018-12-27T15:07:36.998Z,101993.59
2018-12-27T15:10:07.679Z,102000.30
2018-12-27T15:12:36.156Z,102001.20
2018-12-27T15:15:05.621Z,101993.66
2018-12-27T15:17:34.580Z,101992.82
2018-12-27T15:20:03.444Z,101992.82
2018-12-27T15:22:32.065Z,101996.72
2018-12-27T15:25:00.646Z,101999.27
2018-12-27T15:27:29.320Z,101993.38
2018-12-27T15:29:57.885Z,101989.08
2018-12-27T15:32:26.393Z,101996.72
2018-12-27T15:34:54.848Z,101988.95
2018-12-27T15:37:23.558Z,101988.95
2018-12-27T15:39:52.179Z,101993.34
2018-12-27T15:42:20.830Z,101989.83
2018-12-27T15:44:49.605Z,101990.55
2018-12-27T15:47:18.104Z,101991.42
2018-12-27T15:49:46.553Z,101990.70
2018-12-27T15:52:15.014Z,101988.95
2018-12-27T15:54:43.706Z,101988.70
2018-12-27T15:57:12.232Z,101981.63
2018-12-27T15:59:40.793Z,101983.28
2018-12-27T16:02:09.335Z,101983.75
2018-12-27T16:04:38.434Z,101991.61
2018-12-27T16:07:07.115Z,101991.61
2018-12-27T16:09:35.750Z,101988.70
2018-12-27T16:12:04.387Z,101990.55
2018-12-27T16:14:33.342Z,101983.28
2018-12-27T16:17:01.960Z,101991.83
2018-12-27T16:19:30.697Z,101988.24
2018-12-27T16:21:59.544Z,101994.31
2018-12-27T16:24:28.207Z,101986.40
2018-12-27T16:26:56.807Z,101981.88
2018-12-27T16:29:25.285Z,101976.52
2018-12-27T16:31:53.751Z,101976.52
2018-12-27T16:34:22.508Z,101980.66
2018-12-27T16:36:51.137Z,101982.23
2018-12-27T16:39:19.678Z,101980.83
2018-12-27T16:41:49.433Z,101985.50
2018-12-27T16:44:17.996Z,101981.51
2018-12-27T16:46:46.489Z,101981.20
2018-12-27T16:49:14.934Z,101983.00
2018-12-27T16:51:43.535Z,101985.03
2018-12-27T16:54:12.249Z,101972.59
2018-12-27T16:56:40.883Z,101980.91
2018-12-27T16:59:09.547Z,101990.33
2018-12-27T17:01:38.167Z,101980.89
2018-12-27T17:04:07.005Z,101982.23
2018-12-27T17:06:35.513Z,101982.23
2018-12-27T17:09:05.255Z,101979.61
2018-12-27T17:11:33.742Z,101977.58
2018-12-27T17:14:02.463Z,101975.86
2018-12-27T17:16:31.041Z,101984.09
2018-12-27T17:18:59.668Z,101978.98
2018-12-27T17:21:28.473Z,101969.25
2018-12-27T17:23:58.411Z,101966.05
2018-12-27T17:26:26.932Z,101966.05
2018-12-27T17:28:55.461Z,101963.56
2018-12-27T17:31:23.948Z,101963.99
2018-12-27T17:33:52.453Z,101960.07
2018-12-27T17:36:22.002Z,101966.00
2018-12-27T17:38:50.471Z,101959.75
2018-12-27T17:41:18.992Z,101957.58
2018-12-27T17:43:47.593Z,101954.70
2018-12-27T17:46:16.490Z,101955.45
2018-12-27T17:48:45.095Z,101959.41
2018-12-27T17:51:13.587Z,101958.85
2018-12-27T17:53:42.116Z,101959.52
2018-12-27T17:56:18.173Z,101958.64
2018-12-27T17:58:43.810Z,101957.52
2018-12-27T18:01:15.979Z,101955.19
2018-12-27T18:03:44.631Z,101953.10
2018-12-27T18:06:13.048Z,101956.09
2018-12-27T18:08:41.556Z,101947.38
2018-12-27T18:11:10.037Z,101957.34
2018-12-27T18:13:38.509Z,101956.94
2018-12-27T18:16:07.044Z,101961.67
2018-12-27T18:18:35.578Z,101951.50
2018-12-27T18:21:04.282Z,101951.50
2018-12-27T18:23:33.057Z,101954.55
2018-12-27T18:26:01.742Z,101954.55
2018-12-27T18:28:30.300Z,101953.73
2018-12-27T18:31:01.244Z,101957.48
2018-12-27T18:33:29.770Z,101958.24
2018-12-27T18:35:58.204Z,101951.30
2018-12-27T18:38:26.754Z,101951.30
2018-12-27T18:40:55.702Z,101959.52
2018-12-27T18:43:24.330Z,101948.95
2018-12-27T18:45:52.765Z,101943.11
2018-12-27T18:48:21.543Z,101938.83
2018-12-27T18:50:57.461Z,101933.62
2018-12-27T18:53:25.938Z,101943.13
2018-12-27T18:55:54.509Z,101947.05
2018-12-27T18:58:23.216Z,101940.25
2018-12-27T19:00:52.231Z,101944.61
2018-12-27T19:03:21.859Z,101947.78
2018-12-27T19:05:54.220Z,101945.77
2018-12-27T19:08:22.659Z,101936.47
2018-12-27T19:11:27.371Z,101945.13
2018-12-27T19:13:55.836Z,101949.02
2018-12-27T19:16:24.386Z,101938.70
2018-12-27T19:18:52.970Z,101938.70
2018-12-27T19:21:21.549Z,101940.86
2018-12-27T19:23:51.693Z,101938.85
2018-12-27T19:26:20.410Z,101945.19
2018-12-27T19:28:49.038Z,101938.53
2018-12-27T19:31:18.062Z,101936.78
2018-12-27T19:33:48.291Z,101944.92
2018-12-27T19:36:17.017Z,101943.67
2018-12-27T19:38:45.715Z,101943.20
2018-12-27T19:41:14.243Z,101941.35
2018-12-27T19:43:42.923Z,101946.08
2018-12-27T19:46:11.412Z,101951.81
2018-12-27T19:48:41.439Z,101945.67
2018-12-27T19:51:09.909Z,101942.16
2018-12-27T19:53:38.515Z,101943.44
2018-12-27T19:56:07.109Z,101933.92
2018-12-27T19:58:35.914Z,101933.92
2018-12-27T20:01:04.420Z,101936.06
2018-12-27T20:03:32.952Z,101950.22
2018-12-27T20:06:01.559Z,101945.13
2018-12-27T20:08:30.154Z,101950.85
2018-12-27T20:10:58.699Z,101953.76
2018-12-27T20:13:27.219Z,101945.66
2018-12-27T20:15:55.737Z,101944.38
2018-12-27T20:18:24.222Z,101943.64
2018-12-27T20:20:52.763Z,101942.04
2018-12-27T20:23:21.287Z,101942.04
2018-12-27T20:25:49.843Z,101953.63
2018-12-27T20:28:18.431Z,101953.58
2018-12-27T20:30:47.196Z,101957.83
2018-12-27T20:33:15.928Z,101959.24
2018-12-27T20:35:44.612Z,101960.38
2018-12-27T20:38:13.610Z,101961.09
2018-12-27T20:40:42.289Z,101964.13
2018-12-27T20:43:10.896Z,101967.62
2018-12-27T20:45:42.278Z,101962.77
2018-12-27T20:48:10.757Z,101958.20
2018-12-27T20:50:39.262Z,101960.30
2018-12-27T20:53:07.763Z,101954.63
2018-12-27T20:55:37.481Z,101960.30
2018-12-27T20:58:09.118Z,101960.30
2018-12-27T21:00:38.038Z,101964.29
2018-12-27T21:03:06.766Z,101961.64
2018-12-27T21:05:37.732Z,101965.02
2018-12-27T21:08:14.062Z,101968.06
2018-12-27T21:10:42.646Z,101965.16
2018-12-27T21:13:11.228Z,101965.16
2018-12-27T21:15:40.081Z,101966.76
2018-12-27T21:18:08.576Z,101968.52
2018-12-27T21:20:37.086Z,101966.38
2018-12-27T21:23:05.746Z,101964.05
2018-12-27T21:25:37.379Z,101961.73
2018-12-27T21:28:05.881Z,101970.27
2018-12-27T21:30:34.372Z,101970.98
2018-12-27T21:33:02.880Z,101969.97
2018-12-27T21:35:31.343Z,101965.35
2018-12-27T21:37:59.865Z,101963.62
2018-12-27T21:40:28.583Z,101963.62
2018-12-27T21:42:57.327Z,101966.07
2018-12-27T21:45:25.768Z,101964.16
2018-12-27T21:47:54.224Z,101964.07
2018-12-27T21:50:22.828Z,101958.14
2018-12-27T21:52:51.495Z,101960.04
2018-12-27T21:55:21.568Z,101959.60
2018-12-27T21:57:50.604Z,101960.13
2018-12-27T22:00:19.142Z,101959.26
2018-12-27T22:02:48.323Z,101959.26
2018-12-27T22:05:16.769Z,101944.34
2018-12-27T22:07:45.305Z,101944.34
2018-12-27T22:10:13.933Z,101944.09
2018-12-27T22:12:42.570Z,101935.23
2018-12-27T22:15:13.070Z,101940.00
2018-12-27T22:17:41.753Z,101935.70
2018-12-27T22:20:10.319Z,101931.16
2018-12-27T22:22:39.105Z,101930.25
2018-12-27T22:25:07.597Z,101930.25
2018-12-27T22:27:41.470Z,101932.96
2018-12-27T22:30:10.054Z,101924.85
2018-12-27T22:32:38.557Z,101916.86
2018-12-27T22:35:06.971Z,101920.09
2018-12-27T22:37:35.420Z,101909.81
2018-12-27T22:40:08.577Z,101904.87
2018-12-27T22:42:37.272Z,101904.87
2018-12-27T22:45:05.969Z,101918.34
2018-12-27T22:47:34.421Z,101916.05
2018-12-27T22:50:02.866Z,101910.38
2018-12-27T22:52:34.549Z,101908.35
2018-12-27T22:55:02.971Z,101912.51
2018-12-27T22:57:31.537Z,101905.41
2018-12-27T22:59:59.979Z,101902.37
2018-12-27T23:02:28.465Z,101905.47
2018-12-27T23:04:56.910Z,101912.30
2018-12-27T23:07:25.476Z,101912.30
2018-12-27T23:09:53.981Z,101906.67
2018-12-27T23:12:22.438Z,101922.09
2018-12-27T23:14:50.942Z,101916.26
2018-12-27T23:17:19.429Z,101915.41
2018-12-27T23:19:47.961Z,101904.43
2018-12-27T23:22:18.661Z,101916.42
2018-12-27T23:24:49.917Z,101911.02
2018-12-27T23:27:21.196Z,101909.88
2018-12-27T23:29:49.760Z,101921.91
2018-12-27T23:32:18.616Z,101922.67
2018-12-27T23:34:47.127Z,101922.73
2018-12-27T23:37:17.317Z,101927.46
2018-12-27T23:39:45.951Z,101927.46
2018-12-27T23:42:14.735Z,101921.25
2018-12-27T23:44:43.260Z,101922.58
2018-12-27T23:47:11.771Z,101930.09
2018-12-27T23:49:40.331Z,101923.38
2018-12-27T23:52:26.203Z,101929.53
2018-12-27T23:54:54.728Z,101925.75
2018-12-27T23:57:23.173Z,101917.61
2018-12-27T23:59:51.827Z,101917.61
